createdAt,value
2022-10-14T00:00:49.366Z,79.80
2022-10-14T00:03:21.258Z,73.72
2022-10-14T00:05:53.166Z,88.63
2022-10-14T00:08:25.983Z,75.18
2022-10-14T00:10:57.919Z,79.32
2022-10-14T00:13:29.824Z,81.18
2022-10-14T00:16:03.188Z,70.20
2022-10-14T00:18:35.124Z,71.20
2022-10-14T00:21:07.420Z,78.97
2022-10-14T00:23:39.799Z,86.38
2022-10-14T00:26:21.275Z,75.93
2022-10-14T00:28:53.783Z,84.15
2022-10-14T00:31:26.221Z,85.05
2022-10-14T00:33:58.183Z,80.18
2022-10-14T00:36:30.212Z,84.68
2022-10-14T00:39:02.115Z,83.10
2022-10-14T00:41:35.417Z,80.93
2022-10-14T00:44:11.545Z,91.50
2022-10-14T00:46:47.347Z,76.25
2022-10-14T00:49:28.046Z,78.88
2022-10-14T00:52:16.668Z,73.88
2022-10-14T00:54:58.434Z,82.72
2022-10-14T00:57:30.912Z,78.13
2022-10-14T01:00:24.478Z,76.15
2022-10-14T01:02:57.759Z,78.20
2022-10-14T01:05:39.211Z,84.97
2022-10-14T01:08:47.441Z,86.13
2022-10-14T01:11:36.583Z,78.03
2022-10-14T01:14:53.942Z,72.72
2022-10-14T01:17:33.849Z,95.68
2022-10-14T01:20:27.366Z,81.15
2022-10-14T01:23:37.729Z,81.43
2022-10-14T01:26:20.622Z,81.15
2022-10-14T01:29:26.022Z,88.30
2022-10-14T01:32:13.446Z,82.15
2022-10-14T01:34:58.475Z,87.40
2022-10-14T01:37:34.114Z,87.70
2022-10-14T01:40:15.929Z,82.00
2022-10-14T01:42:48.400Z,83.93
2022-10-14T01:45:22.714Z,83.75
2022-10-14T01:47:55.569Z,87.75
2022-10-14T01:50:29.341Z,79.47
2022-10-14T01:53:26.076Z,84.82
2022-10-14T01:55:59.178Z,86.55
2022-10-14T01:58:34.118Z,81.65
2022-10-14T02:01:08.955Z,91.47
2022-10-14T02:03:47.118Z,75.43
2022-10-14T02:06:30.577Z,90.45
2022-10-14T02:09:11.040Z,80.82
2022-10-14T02:12:13.881Z,87.13
2022-10-14T02:15:10.004Z,86.07
2022-10-14T02:17:50.907Z,92.03
2022-10-14T02:20:32.699Z,88.00
2022-10-14T02:23:30.796Z,85.93
2022-10-14T02:26:04.168Z,79.97
2022-10-14T02:28:37.586Z,90.95
2022-10-14T02:31:15.136Z,92.35
2022-10-14T02:33:53.690Z,85.05
2022-10-14T02:36:27.618Z,94.07
2022-10-14T02:39:01.512Z,88.60
2022-10-14T02:41:35.816Z,89.28
2022-10-14T02:44:08.288Z,89.88
2022-10-14T02:46:41.397Z,88.20
2022-10-14T02:49:13.407Z,94.35
2022-10-14T02:51:45.318Z,96.50
2022-10-14T02:54:17.279Z,100.75
2022-10-14T02:56:49.180Z,89.65
2022-10-14T02:59:21.085Z,90.47
2022-10-14T03:01:53.026Z,86.57
2022-10-14T03:04:24.940Z,96.43
2022-10-14T03:06:56.816Z,104.15
2022-10-14T03:09:28.727Z,88.40
2022-10-14T03:12:00.795Z,95.50
2022-10-14T03:14:32.740Z,91.60
2022-10-14T03:17:04.693Z,91.35
2022-10-14T03:19:36.658Z,93.00
2022-10-14T03:22:08.684Z,94.30
2022-10-14T03:24:40.641Z,93.35
2022-10-14T03:27:12.544Z,92.25
2022-10-14T03:29:44.485Z,86.13
2022-10-14T03:32:16.544Z,92.90
2022-10-14T03:34:48.708Z,93.07
2022-10-14T03:37:20.721Z,107.32
2022-10-14T03:39:53.290Z,112.43
2022-10-14T03:42:25.475Z,97.63
2022-10-14T03:44:57.399Z,92.18
2022-10-14T03:47:29.397Z,94.57
2022-10-14T03:50:03.022Z,100.28
2022-10-14T03:52:35.080Z,100.57
2022-10-14T03:55:10.058Z,95.05
2022-10-14T03:57:41.994Z,110.47
2022-10-14T04:00:14.716Z,104.72
2022-10-14T04:02:46.636Z,111.43
2022-10-14T04:05:18.557Z,101.95
2022-10-14T04:07:50.469Z,110.30
2022-10-14T04:10:22.401Z,108.18
2022-10-14T04:12:55.009Z,105.03
2022-10-14T04:15:27.889Z,100.93
2022-10-14T04:18:03.235Z,99.05
2022-10-14T04:20:35.170Z,108.75
2022-10-14T04:23:07.490Z,107.18
2022-10-14T04:25:40.184Z,99.15
2022-10-14T04:28:12.083Z,108.80
2022-10-14T04:30:44.091Z,105.30
2022-10-14T04:33:15.987Z,99.57
2022-10-14T04:35:47.959Z,97.45
2022-10-14T04:38:20.171Z,99.45
2022-10-14T04:40:52.141Z,96.38
2022-10-14T04:43:24.196Z,93.65
2022-10-14T04:45:56.107Z,108.43
2022-10-14T04:48:28.097Z,104.78
2022-10-14T04:51:00.015Z,98.07
2022-10-14T04:53:32.015Z,90.40
2022-10-14T04:56:04.056Z,103.90
2022-10-14T04:58:35.944Z,95.78
2022-10-14T05:01:08.045Z,98.10
2022-10-14T05:03:39.980Z,113.30
2022-10-14T05:06:11.992Z,102.07
2022-10-14T05:08:44.215Z,99.03
2022-10-14T05:11:16.130Z,89.93
2022-10-14T05:13:48.160Z,107.63
2022-10-14T05:16:20.116Z,103.13
2022-10-14T05:18:52.289Z,90.10
2022-10-14T05:21:24.254Z,88.95
2022-10-14T05:23:56.134Z,91.65
2022-10-14T05:26:28.050Z,93.95
2022-10-14T05:29:00.006Z,93.97
2022-10-14T05:31:32.016Z,89.78
2022-10-14T05:34:03.991Z,91.32
2022-10-14T05:36:35.960Z,98.28
2022-10-14T05:39:09.056Z,99.50
2022-10-14T05:41:41.014Z,93.70
2022-10-14T05:44:13.072Z,92.65
2022-10-14T05:46:44.972Z,97.60
2022-10-14T05:49:16.886Z,93.00
2022-10-14T05:51:48.844Z,97.43
2022-10-14T05:54:20.754Z,101.22
2022-10-14T05:56:52.728Z,95.30
2022-10-14T05:59:24.664Z,90.18
2022-10-14T06:01:57.289Z,97.53
2022-10-14T06:04:29.229Z,98.68
2022-10-14T06:07:01.240Z,95.00
2022-10-14T06:09:33.250Z,96.25
2022-10-14T06:12:05.914Z,103.00
2022-10-14T06:14:40.328Z,100.53
2022-10-14T06:17:12.265Z,96.75
2022-10-14T06:19:44.214Z,107.70
2022-10-14T06:22:16.360Z,120.43
2022-10-14T06:24:48.280Z,112.75
2022-10-14T06:27:20.411Z,107.22
2022-10-14T06:29:52.354Z,107.13
2022-10-14T06:32:24.733Z,106.38
2022-10-14T06:34:56.979Z,102.30
2022-10-14T06:37:29.008Z,112.55
2022-10-14T06:40:01.035Z,117.70
2022-10-14T06:42:35.017Z,109.28
2022-10-14T06:45:07.335Z,93.72
2022-10-14T06:47:39.324Z,103.68
2022-10-14T06:50:11.250Z,102.00
2022-10-14T06:52:46.282Z,99.45
2022-10-14T06:55:18.456Z,97.07
2022-10-14T06:57:50.351Z,100.53
2022-10-14T07:00:22.347Z,105.00
2022-10-14T07:02:54.272Z,94.93
2022-10-14T07:05:27.221Z,86.97
2022-10-14T07:10:51.037Z,93.63
2022-10-14T07:13:22.962Z,96.15
2022-10-14T07:15:54.962Z,87.22
2022-10-14T07:18:27.194Z,83.28
2022-10-14T07:21:06.395Z,78.07
2022-10-14T07:23:38.315Z,79.65
2022-10-14T07:26:10.214Z,82.70
2022-10-14T07:28:42.225Z,87.35
2022-10-14T07:31:14.289Z,84.18
2022-10-14T07:33:46.264Z,82.97
2022-10-14T07:36:22.378Z,78.85
2022-10-14T07:38:54.915Z,71.95
2022-10-14T07:41:27.966Z,75.95
2022-10-14T07:44:05.579Z,81.57
2022-10-14T07:46:41.509Z,75.05
2022-10-14T07:49:18.397Z,73.82
2022-10-14T07:51:50.785Z,73.22
2022-10-14T07:54:26.567Z,82.25
2022-10-14T07:56:59.624Z,64.40
2022-10-14T07:59:31.535Z,64.40
2022-10-14T08:02:04.731Z,69.20
2022-10-14T08:04:36.657Z,72.65
2022-10-14T08:07:09.304Z,65.88
2022-10-14T08:09:41.679Z,62.63
2022-10-14T08:12:14.010Z,66.03
2022-10-14T08:14:45.992Z,58.53
2022-10-14T08:17:17.880Z,62.53
2022-10-14T08:19:50.959Z,60.60
2022-10-14T08:22:23.171Z,62.58
2022-10-14T08:24:55.553Z,53.55
2022-10-14T08:27:27.597Z,59.63
2022-10-14T08:29:59.636Z,54.90
2022-10-14T08:32:31.605Z,50.08
2022-10-14T08:35:03.747Z,49.47
2022-10-14T08:37:36.372Z,48.80
2022-10-14T08:40:10.433Z,52.55
2022-10-14T08:43:30.622Z,50.40
2022-10-14T08:46:32.591Z,46.08
2022-10-14T08:49:29.807Z,52.15
2022-10-14T08:52:09.807Z,50.60
2022-10-14T08:54:55.599Z,54.28
2022-10-14T08:57:33.668Z,55.00
2022-10-14T09:00:07.176Z,48.08
2022-10-14T09:02:49.899Z,45.20
2022-10-14T09:05:25.817Z,46.90
2022-10-14T09:07:59.076Z,49.00
2022-10-14T09:10:36.132Z,43.03
2022-10-14T09:13:21.513Z,44.22
2022-10-14T09:16:04.132Z,40.92
2022-10-14T09:18:41.731Z,48.42
2022-10-14T09:21:51.534Z,48.97
2022-10-14T09:24:37.835Z,39.72
2022-10-14T09:27:24.071Z,41.42
2022-10-14T09:30:10.311Z,41.97
2022-10-14T09:32:49.102Z,40.30
2022-10-14T09:35:28.085Z,41.15
2022-10-14T09:38:00.343Z,41.08
2022-10-14T09:40:44.956Z,46.38
2022-10-14T09:43:20.434Z,41.15
2022-10-14T09:46:01.167Z,43.80
2022-10-14T09:48:39.296Z,42.55
2022-10-14T09:51:18.556Z,42.33
2022-10-14T09:53:54.879Z,37.90
2022-10-14T09:56:40.681Z,37.22
2022-10-14T09:59:19.718Z,40.80
2022-10-14T10:02:05.568Z,34.67
2022-10-14T10:04:47.860Z,37.45
2022-10-14T10:07:32.359Z,33.45
2022-10-14T10:10:19.592Z,31.33
2022-10-14T10:12:51.573Z,29.05
2022-10-14T10:15:23.623Z,29.02
2022-10-14T10:17:55.536Z,27.27
2022-10-14T10:20:33.761Z,20.35
2022-10-14T10:23:25.567Z,20.67
2022-10-14T10:26:16.956Z,22.23
2022-10-14T10:28:50.144Z,27.25
2022-10-14T10:31:47.157Z,17.42
2022-10-14T10:34:48.060Z,19.80
2022-10-14T10:37:25.648Z,22.67
2022-10-14T10:40:47.627Z,27.27
2022-10-14T10:43:53.645Z,24.13
2022-10-14T10:46:55.006Z,29.98
2022-10-14T10:50:15.578Z,25.90
2022-10-14T10:53:01.355Z,25.10
2022-10-14T10:59:33.608Z,22.63
2022-10-14T11:02:33.359Z,24.70
2022-10-14T11:05:30.472Z,22.15
2022-10-14T11:08:53.685Z,19.75
2022-10-14T11:12:06.521Z,21.88
2022-10-14T11:14:38.360Z,26.95
2022-10-14T11:17:23.451Z,24.35
2022-10-14T11:20:28.235Z,22.45
2022-10-14T11:23:24.619Z,22.15
2022-10-14T11:26:25.035Z,18.73
2022-10-14T11:29:27.818Z,21.98
2022-10-14T11:32:21.831Z,23.35
2022-10-14T11:35:22.735Z,19.27
2022-10-14T11:38:29.000Z,23.30
2022-10-14T11:41:28.951Z,25.27
2022-10-14T11:44:27.822Z,24.80
2022-10-14T11:47:05.863Z,29.40
2022-10-14T11:49:49.018Z,25.67
2022-10-14T11:52:53.512Z,36.15
2022-10-14T11:55:30.163Z,27.50
2022-10-14T11:58:17.661Z,32.22
2022-10-14T12:01:11.624Z,33.55
2022-10-14T12:03:48.548Z,33.15
2022-10-14T12:06:34.432Z,35.75
2022-10-14T12:09:21.681Z,38.97
2022-10-14T12:12:03.829Z,39.10
2022-10-14T12:14:55.391Z,39.28
2022-10-14T12:18:16.827Z,37.78
2022-10-14T12:20:59.383Z,38.05
2022-10-14T12:24:09.033Z,41.35
2022-10-14T12:26:55.593Z,37.58
2022-10-14T12:29:59.806Z,44.22
2022-10-14T12:32:32.437Z,35.38
2022-10-14T12:35:48.951Z,37.45
2022-10-14T12:38:22.205Z,41.28
2022-10-14T12:40:54.298Z,36.47
2022-10-14T12:43:29.621Z,33.95
2022-10-14T12:46:14.779Z,38.63
2022-10-14T12:48:51.002Z,32.95
2022-10-14T12:51:24.633Z,26.40
2022-10-14T12:54:14.553Z,28.65
2022-10-14T12:57:06.834Z,30.73
2022-10-14T12:59:39.743Z,23.92
2022-10-14T13:02:33.827Z,28.20
2022-10-14T13:05:10.654Z,30.02
2022-10-14T13:07:48.942Z,21.92
2022-10-14T13:10:47.197Z,23.33
2022-10-14T13:13:38.539Z,23.40
2022-10-14T13:16:33.568Z,19.55
2022-10-14T13:19:07.825Z,26.25
2022-10-14T13:21:42.794Z,18.35
2022-10-14T13:24:38.933Z,22.25
2022-10-14T13:27:42.976Z,19.35
2022-10-14T13:30:40.605Z,21.83
2022-10-14T13:33:33.158Z,24.70
2022-10-14T13:36:16.720Z,18.42
2022-10-14T13:38:59.265Z,20.33
2022-10-14T13:41:34.644Z,22.88
2022-10-14T13:44:06.668Z,17.55
2022-10-14T13:46:45.797Z,23.88
2022-10-14T13:49:33.568Z,20.00
2022-10-14T13:52:10.796Z,19.17
2022-10-14T13:54:42.711Z,17.63
2022-10-14T14:00:46.132Z,19.30
2022-10-14T14:03:43.854Z,21.45
2022-10-14T14:06:18.942Z,17.73
2022-10-14T14:09:03.931Z,16.85
2022-10-14T14:11:37.798Z,18.02
2022-10-14T14:14:41.554Z,16.88
2022-10-14T14:17:21.940Z,12.85
2022-10-14T14:19:54.541Z,14.68
2022-10-14T14:22:31.645Z,16.58
2022-10-14T14:25:40.287Z,11.30
2022-10-14T14:28:15.581Z,14.43
2022-10-14T14:30:56.731Z,21.95
2022-10-14T14:33:32.909Z,12.20
2022-10-14T14:36:14.679Z,14.07
2022-10-14T14:39:01.535Z,14.07
2022-10-14T14:41:33.442Z,14.45
2022-10-14T14:44:24.564Z,10.88
2022-10-14T14:47:00.707Z,15.70
2022-10-14T14:49:38.176Z,10.45
2022-10-14T14:52:14.038Z,12.88
2022-10-14T14:54:48.248Z,15.50
2022-10-14T14:57:22.491Z,17.35
2022-10-14T15:00:08.081Z,15.95
2022-10-14T15:02:40.112Z,13.93
2022-10-14T15:05:12.524Z,12.90
2022-10-14T15:07:44.853Z,11.93
2022-10-14T15:10:24.503Z,13.05
2022-10-14T15:13:00.826Z,14.13
2022-10-14T15:15:35.034Z,10.95
2022-10-14T15:18:19.549Z,10.30
2022-10-14T15:20:52.082Z,10.73
2022-10-14T15:23:52.970Z,11.45
2022-10-14T15:26:36.560Z,9.55
2022-10-14T15:29:08.457Z,8.75
2022-10-14T15:31:43.586Z,10.40
2022-10-14T15:34:23.487Z,11.35
2022-10-14T15:36:55.580Z,8.55
2022-10-14T15:39:27.627Z,7.63
2022-10-14T15:41:59.835Z,9.27
2022-10-14T15:44:31.728Z,10.68
2022-10-14T15:47:19.258Z,9.60
2022-10-14T15:49:51.281Z,6.20
2022-10-14T15:52:26.169Z,7.35
2022-10-14T15:54:59.192Z,8.00
2022-10-14T15:57:31.246Z,9.38
2022-10-14T16:00:04.126Z,8.27
2022-10-14T16:02:36.709Z,8.40
2022-10-14T16:05:19.760Z,5.95
2022-10-14T16:07:52.304Z,6.78
2022-10-14T16:10:29.203Z,9.20
2022-10-14T16:13:02.671Z,7.72
2022-10-14T16:15:57.120Z,6.20
2022-10-14T16:18:29.382Z,9.77
2022-10-14T16:21:01.471Z,8.90
2022-10-14T16:23:34.502Z,9.57
2022-10-14T16:26:06.666Z,9.77
2022-10-14T16:28:39.801Z,8.25
2022-10-14T16:31:15.434Z,8.40
2022-10-14T16:33:50.907Z,7.15
2022-10-14T16:36:24.962Z,6.80
2022-10-14T16:38:57.014Z,9.00
2022-10-14T16:41:31.030Z,7.40
2022-10-14T16:44:04.722Z,9.40
2022-10-14T16:46:55.031Z,7.80
2022-10-14T16:51:58.795Z,7.13
2022-10-14T16:54:30.757Z,8.82
2022-10-14T16:57:03.983Z,6.05
2022-10-14T16:59:36.065Z,5.82
2022-10-14T17:02:11.132Z,10.93
2022-10-14T17:04:46.453Z,12.38
2022-10-14T17:07:18.508Z,8.25
2022-10-14T17:09:50.449Z,6.40
2022-10-14T17:12:22.678Z,5.82
2022-10-14T17:14:54.740Z,7.22
2022-10-14T17:17:26.717Z,6.30
2022-10-14T17:19:58.834Z,9.07
2022-10-14T17:22:30.763Z,7.32
2022-10-14T17:25:02.887Z,10.30
2022-10-14T17:27:34.783Z,13.50
2022-10-14T17:30:07.931Z,10.65
2022-10-14T17:32:40.555Z,13.65
2022-10-14T17:35:15.130Z,14.10
2022-10-14T17:37:47.416Z,12.25
2022-10-14T17:40:19.486Z,9.48
2022-10-14T17:42:51.419Z,9.48
2022-10-14T17:45:23.420Z,6.35
2022-10-14T17:47:55.695Z,6.93
2022-10-14T17:50:28.197Z,5.63
2022-10-14T17:53:00.595Z,8.63
2022-10-14T17:55:36.506Z,9.60
2022-10-14T17:58:08.451Z,15.10
2022-10-14T18:00:40.602Z,9.75
2022-10-14T18:03:12.645Z,11.23
2022-10-14T18:05:48.786Z,6.82
2022-10-14T18:08:21.112Z,10.30
2022-10-14T18:10:53.222Z,6.55
2022-10-14T18:13:25.359Z,7.45
2022-10-14T18:16:06.822Z,8.73
2022-10-14T18:18:39.735Z,8.68
2022-10-14T18:21:11.909Z,8.07
2022-10-14T18:23:43.956Z,8.48
2022-10-14T18:26:19.357Z,10.07
2022-10-14T18:28:55.604Z,6.13
2022-10-14T18:31:31.537Z,8.20
2022-10-14T18:34:04.029Z,8.63
2022-10-14T18:36:35.950Z,7.45
2022-10-14T18:39:11.443Z,7.35
2022-10-14T18:41:44.057Z,7.07
2022-10-14T18:44:16.355Z,8.57
2022-10-14T18:46:48.374Z,10.57
2022-10-14T18:49:20.429Z,11.80
2022-10-14T18:51:54.785Z,7.72
2022-10-14T18:54:26.828Z,10.80
2022-10-14T18:56:59.867Z,6.75
2022-10-14T18:59:32.065Z,9.40
2022-10-14T19:02:04.355Z,8.15
2022-10-14T19:04:36.547Z,7.65
2022-10-14T19:07:08.571Z,10.20
2022-10-14T19:09:40.664Z,12.63
2022-10-14T19:12:31.104Z,10.07
2022-10-14T19:17:35.012Z,9.18
2022-10-14T19:20:08.578Z,12.80
2022-10-14T19:22:44.925Z,16.40
2022-10-14T19:25:17.334Z,15.32
2022-10-14T19:27:49.308Z,11.60
2022-10-14T19:30:21.231Z,12.73
2022-10-14T19:32:53.288Z,11.63
2022-10-14T19:35:25.376Z,12.00
2022-10-14T19:37:57.475Z,9.93
2022-10-14T19:40:29.391Z,14.10
2022-10-14T19:43:01.386Z,11.88
2022-10-14T19:45:33.319Z,16.00
2022-10-14T19:48:06.100Z,13.15
2022-10-14T19:50:41.948Z,14.38
2022-10-14T19:53:13.969Z,10.55
2022-10-14T19:55:45.925Z,13.10
2022-10-14T19:58:18.005Z,11.73
2022-10-14T20:00:49.917Z,14.10
2022-10-14T20:03:22.120Z,11.43
2022-10-14T20:06:01.155Z,11.80
2022-10-14T20:08:33.893Z,20.25
2022-10-14T20:11:10.080Z,12.85
2022-10-14T20:13:43.729Z,15.70
2022-10-14T20:16:16.082Z,16.42
2022-10-14T20:18:48.084Z,15.35
2022-10-14T20:21:20.124Z,15.30
2022-10-14T20:23:52.140Z,15.10
2022-10-14T20:29:16.240Z,14.43
2022-10-14T20:31:48.193Z,19.45
2022-10-14T20:34:20.336Z,15.30
2022-10-14T20:36:53.438Z,18.13
2022-10-14T20:39:25.446Z,19.23
2022-10-14T20:41:57.461Z,19.88
2022-10-14T20:44:29.482Z,20.48
2022-10-14T20:47:01.491Z,21.98
2022-10-14T20:49:33.423Z,19.38
2022-10-14T20:52:05.456Z,19.55
2022-10-14T20:54:37.520Z,19.92
2022-10-14T20:57:10.149Z,22.08
2022-10-14T20:59:42.851Z,19.13
2022-10-14T21:02:23.517Z,21.58
2022-10-14T21:04:55.470Z,19.17
2022-10-14T21:07:27.493Z,22.15
2022-10-14T21:09:59.463Z,22.95
2022-10-14T21:12:31.541Z,19.25
2022-10-14T21:15:04.306Z,20.30
2022-10-14T21:17:36.296Z,28.70
2022-10-14T21:20:09.172Z,23.52
2022-10-14T21:22:41.223Z,24.70
2022-10-14T21:25:13.227Z,21.85
2022-10-14T21:27:45.149Z,22.27
2022-10-14T21:30:17.287Z,21.90
2022-10-14T21:32:49.395Z,23.13
2022-10-14T21:35:21.360Z,23.60
2022-10-14T21:37:53.533Z,33.30
2022-10-14T21:40:25.512Z,22.15
2022-10-14T21:42:57.464Z,28.15
2022-10-14T21:45:29.413Z,25.15
2022-10-14T21:48:01.726Z,27.00
2022-10-14T21:50:33.668Z,26.73
2022-10-14T21:53:05.642Z,29.25
2022-10-14T21:55:37.628Z,31.35
2022-10-14T21:58:09.568Z,27.75
2022-10-14T22:00:41.580Z,25.58
2022-10-14T22:03:14.393Z,27.27
2022-10-14T22:05:46.514Z,25.27
2022-10-14T22:08:23.039Z,29.00
2022-10-14T22:10:54.978Z,26.83
2022-10-14T22:13:27.583Z,22.65
2022-10-14T22:15:59.752Z,24.58
2022-10-14T22:18:32.566Z,27.90
2022-10-14T22:21:08.386Z,23.13
2022-10-14T22:23:40.601Z,26.20
2022-10-14T22:26:15.461Z,28.33
2022-10-14T22:28:48.161Z,29.17
2022-10-14T22:31:21.801Z,30.42
2022-10-14T22:33:54.087Z,31.88
2022-10-14T22:36:28.955Z,32.50
2022-10-14T22:39:07.017Z,30.92
2022-10-14T22:41:39.548Z,32.95
2022-10-14T22:44:11.616Z,33.65
2022-10-14T22:46:43.551Z,33.15
2022-10-14T22:49:16.060Z,38.05
2022-10-14T22:51:49.370Z,34.33
2022-10-14T22:54:22.740Z,41.00
2022-10-14T22:56:54.671Z,47.88
2022-10-14T22:59:26.763Z,43.17
2022-10-14T23:01:58.728Z,47.15
2022-10-14T23:04:30.800Z,45.65
2022-10-14T23:07:06.838Z,47.85
2022-10-14T23:09:39.099Z,47.58
2022-10-14T23:12:11.071Z,50.67
2022-10-14T23:14:43.039Z,47.00
2022-10-14T23:17:14.991Z,50.42
2022-10-14T23:19:47.099Z,51.70
2022-10-14T23:22:19.080Z,57.78
2022-10-14T23:24:51.033Z,60.63
2022-10-14T23:27:22.965Z,53.33
2022-10-14T23:29:54.980Z,64.97
2022-10-14T23:32:26.957Z,67.10
2022-10-14T23:34:58.923Z,60.47
2022-10-14T23:37:30.989Z,62.08
2022-10-14T23:40:04.850Z,58.88
2022-10-14T23:42:36.773Z,63.30
2022-10-14T23:45:09.877Z,65.93
2022-10-14T23:47:41.865Z,68.95
2022-10-14T23:50:13.864Z,70.47
2022-10-14T23:52:46.244Z,72.53
2022-10-14T23:55:18.249Z,76.53
2022-10-14T23:57:50.165Z,72.57
